sensor_id;sensor_type;location;lat;lon;timestamp;pressure;altitude;pressure_sealevel;temperature;humidity
39793;BME280;26080;42.264;24.536;2023-06-14T00:01:01;98917.25;;;18.52;100.00
39793;BME280;26080;42.264;24.536;2023-06-14T00:03:28;98922.88;;;18.59;100.00
39793;BME280;26080;42.264;24.536;2023-06-14T00:05:54;98920.44;;;18.67;100.00
39793;BME280;26080;42.264;24.536;2023-06-14T00:08:19;98916.94;;;18.67;100.00
39793;BME280;26080;42.264;24.536;2023-06-14T00:10:46;98915.97;;;18.68;100.00
39793;BME280;26080;42.264;24.536;2023-06-14T00:13:12;98920.44;;;18.67;100.00
39793;BME280;26080;42.264;24.536;2023-06-14T00:15:37;98903.69;;;18.67;100.00
39793;BME280;26080;42.264;24.536;2023-06-14T00:18:03;98912.22;;;18.70;100.00
39793;BME280;26080;42.264;24.536;2023-06-14T00:20:31;98916.81;;;18.68;100.00
39793;BME280;26080;42.264;24.536;2023-06-14T00:22:58;98907.47;;;18.74;100.00
39793;BME280;26080;42.264;24.536;2023-06-14T00:25:24;98903.69;;;18.67;100.00
39793;BME280;26080;42.264;24.536;2023-06-14T00:27:53;98915.44;;;18.74;100.00
39793;BME280;26080;42.264;24.536;2023-06-14T00:30:19;98920.31;;;18.69;100.00
39793;BME280;26080;42.264;24.536;2023-06-14T00:32:45;98913.31;;;18.68;100.00
39793;BME280;26080;42.264;24.536;2023-06-14T00:35:11;98915.16;;;18.77;100.00
39793;BME280;26080;42.264;24.536;2023-06-14T00:37:37;98907.59;;;18.72;100.00
39793;BME280;26080;42.264;24.536;2023-06-14T00:40:03;98915.75;;;18.80;100.00
39793;BME280;26080;42.264;24.536;2023-06-14T00:42:29;98898.09;;;18.70;100.00
39793;BME280;26080;42.264;24.536;2023-06-14T00:44:55;98910.16;;;18.83;100.00
39793;BME280;26080;42.264;24.536;2023-06-14T00:47:20;98906.25;;;18.78;100.00
39793;BME280;26080;42.264;24.536;2023-06-14T00:49:47;98904.81;;;18.74;100.00
39793;BME280;26080;42.264;24.536;2023-06-14T00:52:17;98900.22;;;18.76;100.00
39793;BME280;26080;42.264;24.536;2023-06-14T00:54:42;98875.53;;;18.54;100.00
39793;BME280;26080;42.264;24.536;2023-06-14T00:57:09;98902.44;;;18.71;100.00
39793;BME280;26080;42.264;24.536;2023-06-14T00:59:40;98899.50;;;18.64;100.00
39793;BME280;26080;42.264;24.536;2023-06-14T01:02:07;98894.66;;;18.58;100.00
39793;BME280;26080;42.264;24.536;2023-06-14T01:04:32;98892.09;;;18.68;100.00
39793;BME280;26080;42.264;24.536;2023-06-14T01:15:15;98890.16;;;18.49;100.00
39793;BME280;26080;42.264;24.536;2023-06-14T01:17:41;98884.00;;;18.48;100.00
39793;BME280;26080;42.264;24.536;2023-06-14T01:20:13;98888.88;;;18.43;100.00
39793;BME280;26080;42.264;24.536;2023-06-14T01:22:55;98889.84;;;18.42;100.00
39793;BME280;26080;42.264;24.536;2023-06-14T01:25:21;98887.59;;;18.38;100.00
39793;BME280;26080;42.264;24.536;2023-06-14T01:28:04;98884.00;;;18.48;100.00
39793;BME280;26080;42.264;24.536;2023-06-14T01:30:36;98880.94;;;18.43;100.00
39793;BME280;26080;42.264;24.536;2023-06-14T01:33:04;98882.19;;;18.49;100.00
39793;BME280;26080;42.264;24.536;2023-06-14T01:35:30;98873.94;;;18.42;100.00
39793;BME280;26080;42.264;24.536;2023-06-14T01:37:56;98883.97;;;18.39;100.00
39793;BME280;26080;42.264;24.536;2023-06-14T01:40:22;98887.59;;;18.38;100.00
39793;BME280;26080;42.264;24.536;2023-06-14T01:42:50;98892.72;;;18.29;100.00
39793;BME280;26080;42.264;24.536;2023-06-14T01:45:18;98880.56;;;18.27;100.00
39793;BME280;26080;42.264;24.536;2023-06-14T01:47:45;98869.84;;;18.08;100.00
39793;BME280;26080;42.264;24.536;2023-06-14T01:50:13;98884.41;;;18.13;100.00
39793;BME280;26080;42.264;24.536;2023-06-14T01:52:38;98883.22;;;18.06;100.00
39793;BME280;26080;42.264;24.536;2023-06-14T01:55:05;98880.53;;;17.96;100.00
39793;BME280;26080;42.264;24.536;2023-06-14T01:57:31;98869.72;;;17.88;100.00
39793;BME280;26080;42.264;24.536;2023-06-14T01:59:57;98873.25;;;17.77;100.00
39793;BME280;26080;42.264;24.536;2023-06-14T02:02:23;98886.47;;;17.89;100.00
39793;BME280;26080;42.264;24.536;2023-06-14T02:04:48;98880.13;;;18.01;100.00
39793;BME280;26080;42.264;24.536;2023-06-14T02:07:14;98877.63;;;17.99;100.00
39793;BME280;26080;42.264;24.536;2023-06-14T02:09:43;98877.88;;;17.96;100.00
39793;BME280;26080;42.264;24.536;2023-06-14T02:12:09;98894.66;;;18.06;100.00
39793;BME280;26080;42.264;24.536;2023-06-14T02:14:35;98877.56;;;18.11;100.00
39793;BME280;26080;42.264;24.536;2023-06-14T02:17:01;98896.13;;;18.20;100.00
39793;BME280;26080;42.264;24.536;2023-06-14T02:19:27;98892.50;;;18.21;100.00
39793;BME280;26080;42.264;24.536;2023-06-14T02:21:53;98891.38;;;18.14;100.00
39793;BME280;26080;42.264;24.536;2023-06-14T02:24:19;98892.22;;;18.15;100.00
39793;BME280;26080;42.264;24.536;2023-06-14T02:26:45;98874.25;;;17.97;100.00
39793;BME280;26080;42.264;24.536;2023-06-14T02:29:11;98870.25;;;17.82;100.00
39793;BME280;26080;42.264;24.536;2023-06-14T02:31:40;98887.91;;;17.82;100.00
39793;BME280;26080;42.264;24.536;2023-06-14T02:34:06;98886.06;;;17.72;100.00
39793;BME280;26080;42.264;24.536;2023-06-14T02:36:34;98886.19;;;17.71;100.00
39793;BME280;26080;42.264;24.536;2023-06-14T02:39:00;98897.94;;;17.67;100.00
39793;BME280;26080;42.264;24.536;2023-06-14T02:41:26;98883.28;;;17.63;100.00
39793;BME280;26080;42.264;24.536;2023-06-14T02:43:52;98890.84;;;17.79;100.00
39793;BME280;26080;42.264;24.536;2023-06-14T02:46:18;98891.66;;;17.79;100.00
39793;BME280;26080;42.264;24.536;2023-06-14T02:48:44;98893.44;;;17.69;100.00
39793;BME280;26080;42.264;24.536;2023-06-14T02:51:10;98901.56;;;17.66;100.00
39793;BME280;26080;42.264;24.536;2023-06-14T02:53:36;98907.13;;;17.63;100.00
39793;BME280;26080;42.264;24.536;2023-06-14T02:56:02;98909.06;;;17.61;100.00
39793;BME280;26080;42.264;24.536;2023-06-14T02:58:29;98917.97;;;17.60;100.00
39793;BME280;26080;42.264;24.536;2023-06-14T03:00:57;98893.47;;;17.46;100.00
39793;BME280;26080;42.264;24.536;2023-06-14T03:03:31;98919.53;;;17.62;100.00
39793;BME280;26080;42.264;24.536;2023-06-14T03:05:58;98921.06;;;17.65;100.00
39793;BME280;26080;42.264;24.536;2023-06-14T03:08:32;98928.06;;;17.66;100.00
39793;BME280;26080;42.264;24.536;2023-06-14T03:11:04;98928.69;;;17.69;100.00
39793;BME280;26080;42.264;24.536;2023-06-14T03:13:30;98929.28;;;17.73;100.00
39793;BME280;26080;42.264;24.536;2023-06-14T03:15:59;98918.44;;;17.65;100.00
39793;BME280;26080;42.264;24.536;2023-06-14T03:18:28;98900.16;;;17.62;100.00
39793;BME280;26080;42.264;24.536;2023-06-14T03:20:54;98929.47;;;17.81;100.00
39793;BME280;26080;42.264;24.536;2023-06-14T03:23:23;98930.19;;;17.83;100.00
39793;BME280;26080;42.264;24.536;2023-06-14T03:25:48;98926.06;;;17.90;100.00
39793;BME280;26080;42.264;24.536;2023-06-14T03:28:14;98929.41;;;17.92;100.00
39793;BME280;26080;42.264;24.536;2023-06-14T03:30:39;98928.66;;;18.01;100.00
39793;BME280;26080;42.264;24.536;2023-06-14T03:33:05;98937.47;;;18.23;100.00
39793;BME280;26080;42.264;24.536;2023-06-14T03:35:31;98930.53;;;18.31;100.00
39793;BME280;26080;42.264;24.536;2023-06-14T03:37:56;98938.28;;;18.44;100.00
39793;BME280;26080;42.264;24.536;2023-06-14T03:40:22;98940.38;;;18.41;100.00
39793;BME280;26080;42.264;24.536;2023-06-14T03:42:51;98921.16;;;18.27;100.00
39793;BME280;26080;42.264;24.536;2023-06-14T03:45:17;98937.56;;;18.42;100.00
39793;BME280;26080;42.264;24.536;2023-06-14T03:47:42;98942.81;;;18.53;100.00
39793;BME280;26080;42.264;24.536;2023-06-14T03:50:08;98943.66;;;18.54;100.00
39793;BME280;26080;42.264;24.536;2023-06-14T03:52:34;98948.81;;;18.55;100.00
39793;BME280;26080;42.264;24.536;2023-06-14T03:54:59;98947.72;;;18.58;100.00
39793;BME280;26080;42.264;24.536;2023-06-14T03:57:29;98957.84;;;18.64;100.00
39793;BME280;26080;42.264;24.536;2023-06-14T03:59:55;98952.84;;;18.71;100.00
39793;BME280;26080;42.264;24.536;2023-06-14T04:02:20;98954.00;;;18.78;100.00
39793;BME280;26080;42.264;24.536;2023-06-14T04:04:46;98952.63;;;18.83;100.00
39793;BME280;26080;42.264;24.536;2023-06-14T04:07:15;98952.38;;;18.96;100.00
39793;BME280;26080;42.264;24.536;2023-06-14T04:09:44;98962.44;;;19.02;100.00
39793;BME280;26080;42.264;24.536;2023-06-14T04:12:10;98960.72;;;19.32;100.00
39793;BME280;26080;42.264;24.536;2023-06-14T04:14:36;98931.53;;;19.41;100.00
39793;BME280;26080;42.264;24.536;2023-06-14T04:17:02;98938.03;;;19.97;100.00
39793;BME280;26080;42.264;24.536;2023-06-14T04:19:27;98967.75;;;20.78;100.00
39793;BME280;26080;42.264;24.536;2023-06-14T04:21:53;98978.13;;;21.08;100.00
39793;BME280;26080;42.264;24.536;2023-06-14T04:24:18;98973.00;;;21.34;100.00
39793;BME280;26080;42.264;24.536;2023-06-14T04:26:45;98967.16;;;21.48;100.00
39793;BME280;26080;42.264;24.536;2023-06-14T04:29:11;98953.13;;;21.28;100.00
39793;BME280;26080;42.264;24.536;2023-06-14T04:31:44;98967.16;;;21.48;100.00
39793;BME280;26080;42.264;24.536;2023-06-14T04:34:10;98968.09;;;21.57;100.00
39793;BME280;26080;42.264;24.536;2023-06-14T04:36:42;98968.50;;;21.80;100.00
39793;BME280;26080;42.264;24.536;2023-06-14T04:39:17;98974.38;;;21.83;100.00
39793;BME280;26080;42.264;24.536;2023-06-14T04:41:43;98965.38;;;22.02;100.00
39793;BME280;26080;42.264;24.536;2023-06-14T04:44:09;98984.03;;;22.38;100.00
39793;BME280;26080;42.264;24.536;2023-06-14T04:46:35;98971.13;;;22.51;100.00
39793;BME280;26080;42.264;24.536;2023-06-14T04:49:10;98989.28;;;22.73;100.00
39793;BME280;26080;42.264;24.536;2023-06-14T04:51:41;98988.09;;;22.68;100.00
39793;BME280;26080;42.264;24.536;2023-06-14T04:54:08;98986.66;;;22.56;100.00
39793;BME280;26080;42.264;24.536;2023-06-14T04:56:35;98994.31;;;22.51;100.00
39793;BME280;26080;42.264;24.536;2023-06-14T04:59:02;98988.94;;;22.25;100.00
39793;BME280;26080;42.264;24.536;2023-06-14T05:01:30;98994.47;;;22.31;100.00
39793;BME280;26080;42.264;24.536;2023-06-14T05:03:57;99005.03;;;22.59;100.00
39793;BME280;26080;42.264;24.536;2023-06-14T05:06:22;98989.59;;;22.70;100.00
39793;BME280;26080;42.264;24.536;2023-06-14T05:08:48;99010.34;;;23.02;100.00
39793;BME280;26080;42.264;24.536;2023-06-14T05:11:13;99000.47;;;22.95;100.00
39793;BME280;26080;42.264;24.536;2023-06-14T05:13:39;99004.94;;;23.28;100.00
39793;BME280;26080;42.264;24.536;2023-06-14T05:16:05;99007.00;;;23.34;100.00
39793;BME280;26080;42.264;24.536;2023-06-14T05:18:31;99012.72;;;23.90;100.00
39793;BME280;26080;42.264;24.536;2023-06-14T05:20:59;99027.63;;;24.01;100.00
39793;BME280;26080;42.264;24.536;2023-06-14T05:23:25;99036.31;;;24.11;100.00
39793;BME280;26080;42.264;24.536;2023-06-14T05:25:50;99002.66;;;23.84;100.00
39793;BME280;26080;42.264;24.536;2023-06-14T05:28:16;99024.19;;;23.66;100.00
39793;BME280;26080;42.264;24.536;2023-06-14T05:30:42;99015.03;;;23.77;100.00
39793;BME280;26080;42.264;24.536;2023-06-14T05:33:07;99038.03;;;24.36;100.00
39793;BME280;26080;42.264;24.536;2023-06-14T05:35:33;99039.72;;;24.54;100.00
39793;BME280;26080;42.264;24.536;2023-06-14T05:37:59;99042.56;;;24.68;100.00
39793;BME280;26080;42.264;24.536;2023-06-14T05:40:24;99041.53;;;24.53;100.00
39793;BME280;26080;42.264;24.536;2023-06-14T05:42:50;99044.06;;;24.46;100.00
39793;BME280;26080;42.264;24.536;2023-06-14T05:45:16;99047.41;;;24.65;100.00
39793;BME280;26080;42.264;24.536;2023-06-14T05:47:42;99037.69;;;24.39;100.00
39793;BME280;26080;42.264;24.536;2023-06-14T05:50:08;99047.06;;;24.35;100.00
39793;BME280;26080;42.264;24.536;2023-06-14T05:52:34;99033.97;;;24.00;100.00
39793;BME280;26080;42.264;24.536;2023-06-14T05:55:01;99031.91;;;23.77;100.00
39793;BME280;26080;42.264;24.536;2023-06-14T05:57:26;99038.88;;;23.62;100.00
39793;BME280;26080;42.264;24.536;2023-06-14T05:59:52;99055.41;;;23.66;100.00
39793;BME280;26080;42.264;24.536;2023-06-14T06:02:17;99053.97;;;23.45;100.00
39793;BME280;26080;42.264;24.536;2023-06-14T06:04:43;99054.22;;;23.00;100.00
39793;BME280;26080;42.264;24.536;2023-06-14T06:07:08;99033.81;;;22.91;100.00
39793;BME280;26080;42.264;24.536;2023-06-14T06:09:43;99053.94;;;23.37;100.00
39793;BME280;26080;42.264;24.536;2023-06-14T06:12:11;99050.97;;;23.14;100.00
39793;BME280;26080;42.264;24.536;2023-06-14T06:14:37;99049.69;;;23.18;100.00
39793;BME280;26080;42.264;24.536;2023-06-14T06:17:02;99053.03;;;23.28;100.00
39793;BME280;26080;42.264;24.536;2023-06-14T06:19:29;99052.16;;;23.54;100.00
39793;BME280;26080;42.264;24.536;2023-06-14T06:21:54;99041.75;;;23.77;100.00
39793;BME280;26080;42.264;24.536;2023-06-14T06:24:20;99051.19;;;24.05;100.00
39793;BME280;26080;42.264;24.536;2023-06-14T06:26:45;99038.53;;;24.32;100.00
39793;BME280;26080;42.264;24.536;2023-06-14T06:29:11;99060.13;;;24.46;100.00
39793;BME280;26080;42.264;24.536;2023-06-14T06:31:36;99053.91;;;24.78;100.00
39793;BME280;26080;42.264;24.536;2023-06-14T06:34:02;99064.78;;;25.18;100.00
39793;BME280;26080;42.264;24.536;2023-06-14T06:36:28;99069.13;;;25.19;100.00
39793;BME280;26080;42.264;24.536;2023-06-14T06:38:53;99064.88;;;25.40;100.00
39793;BME280;26080;42.264;24.536;2023-06-14T06:41:18;99065.00;;;25.47;100.00
39793;BME280;26080;42.264;24.536;2023-06-14T06:43:44;99056.06;;;24.99;100.00
39793;BME280;26080;42.264;24.536;2023-06-14T06:46:10;99061.09;;;24.94;100.00
39793;BME280;26080;42.264;24.536;2023-06-14T06:48:35;99065.66;;;25.49;100.00
39793;BME280;26080;42.264;24.536;2023-06-14T06:51:00;99059.59;;;25.63;95.85
39793;BME280;26080;42.264;24.536;2023-06-14T06:53:26;99063.94;;;25.73;96.32
39793;BME280;26080;42.264;24.536;2023-06-14T06:55:51;99062.56;;;25.77;99.03
39793;BME280;26080;42.264;24.536;2023-06-14T06:58:17;99062.09;;;25.65;99.19
39793;BME280;26080;42.264;24.536;2023-06-14T07:00:43;99052.53;;;25.79;95.56
39793;BME280;26080;42.264;24.536;2023-06-14T07:03:08;99065.09;;;25.78;98.68
39793;BME280;26080;42.264;24.536;2023-06-14T07:05:34;99049.16;;;25.37;93.75
39793;BME280;26080;42.264;24.536;2023-06-14T07:08:00;99043.31;;;25.18;92.91
39793;BME280;26080;42.264;24.536;2023-06-14T07:10:25;99059.28;;;24.87;96.42
39793;BME280;26080;42.264;24.536;2023-06-14T07:12:51;99059.94;;;24.97;98.81
39793;BME280;26080;42.264;24.536;2023-06-14T07:15:16;99064.41;;;25.29;98.18
39793;BME280;26080;42.264;24.536;2023-06-14T07:17:42;99052.41;;;24.84;97.94
39793;BME280;26080;42.264;24.536;2023-06-14T07:20:08;99028.66;;;24.65;96.83
39793;BME280;26080;42.264;24.536;2023-06-14T07:22:37;99055.09;;;24.84;97.87
39793;BME280;26080;42.264;24.536;2023-06-14T07:25:02;99037.88;;;24.30;98.17
39793;BME280;26080;42.264;24.536;2023-06-14T07:27:28;99051.75;;;24.49;99.05
39793;BME280;26080;42.264;24.536;2023-06-14T07:29:53;99045.66;;;24.07;98.77
39793;BME280;26080;42.264;24.536;2023-06-14T07:32:19;99055.03;;;24.11;100.00
39793;BME280;26080;42.264;24.536;2023-06-14T07:34:45;99052.25;;;24.53;100.00
39793;BME280;26080;42.264;24.536;2023-06-14T07:37:10;99053.91;;;24.95;100.00
39793;BME280;26080;42.264;24.536;2023-06-14T07:39:36;99054.38;;;25.23;96.28
39793;BME280;26080;42.264;24.536;2023-06-14T07:42:01;99051.19;;;25.27;95.95
39793;BME280;26080;42.264;24.536;2023-06-14T07:44:29;99060.28;;;25.10;94.05
39793;BME280;26080;42.264;24.536;2023-06-14T07:46:56;99067.81;;;25.06;96.57
39793;BME280;26080;42.264;24.536;2023-06-14T07:49:23;99061.94;;;25.03;98.01
39793;BME280;26080;42.264;24.536;2023-06-14T07:51:49;99061.31;;;25.48;94.72
39793;BME280;26080;42.264;24.536;2023-06-14T07:54:16;99072.31;;;25.61;93.26
39793;BME280;26080;42.264;24.536;2023-06-14T07:56:42;99063.63;;;25.59;95.70
39793;BME280;26080;42.264;24.536;2023-06-14T07:59:08;99052.47;;;25.87;94.94
39793;BME280;26080;42.264;24.536;2023-06-14T08:01:36;99064.09;;;26.02;93.26
39793;BME280;26080;42.264;24.536;2023-06-14T08:04:02;99056.75;;;26.04;92.90
39793;BME280;26080;42.264;24.536;2023-06-14T08:06:29;99073.97;;;25.79;93.82
39793;BME280;26080;42.264;24.536;2023-06-14T08:08:55;99071.72;;;25.51;96.22
39793;BME280;26080;42.264;24.536;2023-06-14T08:11:21;99076.78;;;25.38;100.00
39793;BME280;26080;42.264;24.536;2023-06-14T08:13:46;99078.50;;;25.23;98.25
39793;BME280;26080;42.264;24.536;2023-06-14T08:16:11;99077.63;;;25.30;98.35
39793;BME280;26080;42.264;24.536;2023-06-14T08:18:37;99087.50;;;25.38;97.41
39793;BME280;26080;42.264;24.536;2023-06-14T08:21:02;99068.03;;;25.52;96.65
39793;BME280;26080;42.264;24.536;2023-06-14T08:23:28;99084.69;;;25.79;98.63
39793;BME280;26080;42.264;24.536;2023-06-14T08:25:53;99087.94;;;26.05;97.29
39793;BME280;26080;42.264;24.536;2023-06-14T08:28:20;99067.47;;;26.04;100.00
39793;BME280;26080;42.264;24.536;2023-06-14T08:30:45;99085.19;;;25.82;98.86
39793;BME280;26080;42.264;24.536;2023-06-14T08:33:11;99081.19;;;26.09;100.00
39793;BME280;26080;42.264;24.536;2023-06-14T08:35:37;99092.69;;;25.87;95.19
39793;BME280;26080;42.264;24.536;2023-06-14T08:38:04;99079.94;;;25.89;94.54
39793;BME280;26080;42.264;24.536;2023-06-14T08:40:47;99096.44;;;26.09;91.61
39793;BME280;26080;42.264;24.536;2023-06-14T08:43:13;99080.63;;;26.14;93.52
39793;BME280;26080;42.264;24.536;2023-06-14T08:45:39;99094.13;;;26.37;92.05
39793;BME280;26080;42.264;24.536;2023-06-14T08:48:08;99091.25;;;26.30;91.04
39793;BME280;26080;42.264;24.536;2023-06-14T08:50:34;99096.25;;;26.41;90.30
39793;BME280;26080;42.264;24.536;2023-06-14T08:53:02;99091.59;;;26.35;91.28
39793;BME280;26080;42.264;24.536;2023-06-14T08:55:28;99096.63;;;26.38;89.23
39793;BME280;26080;42.264;24.536;2023-06-14T08:57:56;99090.38;;;26.46;88.31
39793;BME280;26080;42.264;24.536;2023-06-14T09:00:26;99088.63;;;26.53;88.18
39793;BME280;26080;42.264;24.536;2023-06-14T09:02:53;99087.09;;;26.36;88.99
39793;BME280;26080;42.264;24.536;2023-06-14T09:05:27;99085.47;;;26.49;87.99
39793;BME280;26080;42.264;24.536;2023-06-14T09:07:53;99063.94;;;26.26;91.51
39793;BME280;26080;42.264;24.536;2023-06-14T09:10:20;99078.00;;;26.60;95.29
39793;BME280;26080;42.264;24.536;2023-06-14T09:12:46;99073.34;;;27.14;89.87
39793;BME280;26080;42.264;24.536;2023-06-14T09:15:12;99061.59;;;26.92;86.18
39793;BME280;26080;42.264;24.536;2023-06-14T09:17:39;99064.59;;;27.12;87.55
39793;BME280;26080;42.264;24.536;2023-06-14T09:20:06;99062.31;;;27.38;87.68
39793;BME280;26080;42.264;24.536;2023-06-14T09:22:37;99046.34;;;27.22;84.89
39793;BME280;26080;42.264;24.536;2023-06-14T09:25:03;99054.16;;;27.32;83.89
39793;BME280;26080;42.264;24.536;2023-06-14T09:27:29;99067.06;;;26.99;86.57
39793;BME280;26080;42.264;24.536;2023-06-14T09:29:55;99072.22;;;27.08;84.35
39793;BME280;26080;42.264;24.536;2023-06-14T09:32:21;99055.84;;;26.95;86.97
39793;BME280;26080;42.264;24.536;2023-06-14T09:34:47;99057.53;;;26.58;88.02
39793;BME280;26080;42.264;24.536;2023-06-14T09:37:13;99054.56;;;26.91;86.13
39793;BME280;26080;42.264;24.536;2023-06-14T09:39:51;99056.75;;;27.25;84.59
39793;BME280;26080;42.264;24.536;2023-06-14T09:42:17;99051.47;;;26.79;85.15
39793;BME280;26080;42.264;24.536;2023-06-14T09:44:46;99039.53;;;26.82;84.59
39793;BME280;26080;42.264;24.536;2023-06-14T09:47:13;99045.78;;;27.27;92.43
39793;BME280;26080;42.264;24.536;2023-06-14T09:49:39;99041.78;;;26.93;83.65
39793;BME280;26080;42.264;24.536;2023-06-14T09:52:06;99036.25;;;27.24;82.53
39793;BME280;26080;42.264;24.536;2023-06-14T09:54:41;99050.06;;;27.51;80.78
39793;BME280;26080;42.264;24.536;2023-06-14T09:57:10;99033.09;;;27.65;88.28
39793;BME280;26080;42.264;24.536;2023-06-14T09:59:40;99044.22;;;28.13;81.97
39793;BME280;26080;42.264;24.536;2023-06-14T10:02:17;99040.66;;;28.27;84.80
39793;BME280;26080;42.264;24.536;2023-06-14T10:04:46;99036.13;;;28.13;92.76
39793;BME280;26080;42.264;24.536;2023-06-14T10:07:19;99040.66;;;27.91;85.27
39793;BME280;26080;42.264;24.536;2023-06-14T10:09:46;99034.56;;;28.03;82.31
39793;BME280;26080;42.264;24.536;2023-06-14T10:12:17;99030.03;;;27.68;79.32
39793;BME280;26080;42.264;24.536;2023-06-14T10:14:58;99023.91;;;27.74;83.48
39793;BME280;26080;42.264;24.536;2023-06-14T10:20:21;99034.00;;;27.87;86.30
39793;BME280;26080;42.264;24.536;2023-06-14T10:23:00;99009.66;;;27.44;83.87
39793;BME280;26080;42.264;24.536;2023-06-14T10:25:30;99028.00;;;27.70;82.25
39793;BME280;26080;42.264;24.536;2023-06-14T10:30:33;99023.19;;;27.21;81.14
39793;BME280;26080;42.264;24.536;2023-06-14T10:33:06;99025.81;;;27.14;84.23
39793;BME280;26080;42.264;24.536;2023-06-14T10:35:32;99022.34;;;27.21;84.09
39793;BME280;26080;42.264;24.536;2023-06-14T10:38:08;99031.63;;;27.18;83.80
39793;BME280;26080;42.264;24.536;2023-06-14T10:40:34;99026.63;;;27.30;84.04
39793;BME280;26080;42.264;24.536;2023-06-14T10:43:00;99018.06;;;27.26;84.69
39793;BME280;26080;42.264;24.536;2023-06-14T10:45:26;99014.19;;;27.43;85.10
39793;BME280;26080;42.264;24.536;2023-06-14T10:47:56;98998.88;;;27.59;83.79
39793;BME280;26080;42.264;24.536;2023-06-14T10:50:31;99007.19;;;27.79;81.08
39793;BME280;26080;42.264;24.536;2023-06-14T10:52:58;99008.66;;;27.81;82.64
39793;BME280;26080;42.264;24.536;2023-06-14T10:55:35;98994.25;;;27.89;77.47
39793;BME280;26080;42.264;24.536;2023-06-14T10:58:01;98999.44;;;27.90;81.09
39793;BME280;26080;42.264;24.536;2023-06-14T11:00:29;98981.19;;;28.07;77.21
39793;BME280;26080;42.264;24.536;2023-06-14T11:08:27;98975.53;;;28.23;77.46
39793;BME280;26080;42.264;24.536;2023-06-14T11:10:59;98986.53;;;28.00;77.16
39793;BME280;26080;42.264;24.536;2023-06-14T11:13:42;98977.72;;;27.56;79.23
39793;BME280;26080;42.264;24.536;2023-06-14T11:16:13;98975.25;;;27.25;81.38
39793;BME280;26080;42.264;24.536;2023-06-14T11:18:40;98975.84;;;27.05;78.65
39793;BME280;26080;42.264;24.536;2023-06-14T11:21:06;98975.25;;;26.95;84.26
39793;BME280;26080;42.264;24.536;2023-06-14T11:24:09;98974.22;;;26.96;79.73
39793;BME280;26080;42.264;24.536;2023-06-14T11:26:37;98972.78;;;27.08;81.49
39793;BME280;26080;42.264;24.536;2023-06-14T11:29:02;98972.69;;;27.02;80.19
39793;BME280;26080;42.264;24.536;2023-06-14T11:31:28;98966.16;;;26.96;81.59
39793;BME280;26080;42.264;24.536;2023-06-14T11:33:58;98969.41;;;26.92;83.43
39793;BME280;26080;42.264;24.536;2023-06-14T11:36:28;98969.97;;;26.87;86.58
39793;BME280;26080;42.264;24.536;2023-06-14T11:39:01;98957.53;;;26.71;84.04
39793;BME280;26080;42.264;24.536;2023-06-14T11:41:46;98967.06;;;26.59;83.66
39793;BME280;26080;42.264;24.536;2023-06-14T11:44:12;98959.16;;;26.43;86.44
39793;BME280;26080;42.264;24.536;2023-06-14T11:46:38;98945.09;;;26.18;87.04
39793;BME280;26080;42.264;24.536;2023-06-14T11:49:07;98956.66;;;26.18;94.96
39793;BME280;26080;42.264;24.536;2023-06-14T11:51:35;98943.72;;;25.99;87.03
39793;BME280;26080;42.264;24.536;2023-06-14T11:54:02;98944.47;;;26.31;89.26
39793;BME280;26080;42.264;24.536;2023-06-14T11:56:28;98945.22;;;26.62;94.16
39793;BME280;26080;42.264;24.536;2023-06-14T11:58:54;98935.56;;;26.97;85.60
39793;BME280;26080;42.264;24.536;2023-06-14T12:01:22;98943.81;;;27.25;82.95
39793;BME280;26080;42.264;24.536;2023-06-14T12:03:49;98944.38;;;27.35;85.05
39793;BME280;26080;42.264;24.536;2023-06-14T12:06:15;98946.44;;;27.55;84.88
39793;BME280;26080;42.264;24.536;2023-06-14T12:08:43;98938.25;;;27.78;85.22
39793;BME280;26080;42.264;24.536;2023-06-14T12:11:12;98938.91;;;28.01;81.70
39793;BME280;26080;42.264;24.536;2023-06-14T12:13:39;98935.22;;;28.09;78.46
39793;BME280;26080;42.264;24.536;2023-06-14T12:16:11;98939.84;;;28.36;78.07
39793;BME280;26080;42.264;24.536;2023-06-14T12:18:38;98938.91;;;28.50;84.35
39793;BME280;26080;42.264;24.536;2023-06-14T12:21:08;98929.94;;;28.65;78.55
39793;BME280;26080;42.264;24.536;2023-06-14T12:23:44;98927.94;;;28.80;76.19
39793;BME280;26080;42.264;24.536;2023-06-14T12:26:16;98928.34;;;28.49;75.46
39793;BME280;26080;42.264;24.536;2023-06-14T12:28:44;98922.69;;;28.16;76.23
39793;BME280;26080;42.264;24.536;2023-06-14T12:31:11;98913.63;;;27.59;76.43
39793;BME280;26080;42.264;24.536;2023-06-14T12:33:38;98912.41;;;27.62;78.58
39793;BME280;26080;42.264;24.536;2023-06-14T12:36:04;98920.78;;;27.88;83.20
39793;BME280;26080;42.264;24.536;2023-06-14T12:38:32;98915.75;;;28.07;77.71
39793;BME280;26080;42.264;24.536;2023-06-14T12:40:57;98905.97;;;27.99;79.51
39793;BME280;26080;42.264;24.536;2023-06-14T12:43:23;98907.88;;;28.05;78.98
39793;BME280;26080;42.264;24.536;2023-06-14T12:45:49;98902.66;;;27.97;77.04
39793;BME280;26080;42.264;24.536;2023-06-14T12:48:15;98906.84;;;28.06;79.92
39793;BME280;26080;42.264;24.536;2023-06-14T12:50:41;98906.31;;;28.17;86.29
39793;BME280;26080;42.264;24.536;2023-06-14T12:53:06;98890.13;;;28.11;76.30
39793;BME280;26080;42.264;24.536;2023-06-14T12:55:32;98892.47;;;28.42;83.35
39793;BME280;26080;42.264;24.536;2023-06-14T12:57:59;98900.91;;;28.67;86.18
39793;BME280;26080;42.264;24.536;2023-06-14T13:00:24;98895.97;;;28.70;79.70
39793;BME280;26080;42.264;24.536;2023-06-14T13:02:51;98898.81;;;28.62;81.23
39793;BME280;26080;42.264;24.536;2023-06-14T13:05:17;98897.81;;;28.70;79.17